sensor_id;sensor_type;location;lat;lon;timestamp;P1;durP1;ratioP1;P2;durP2;ratioP2
20525;SDS011;10421;49.142;9.232;2023-02-18T00:01:25;2.03;;;1.73;;
20525;SDS011;10421;49.142;9.232;2023-02-18T00:03:54;2.63;;;1.90;;
20525;SDS011;10421;49.142;9.232;2023-02-18T00:06:23;1.90;;;1.77;;
20525;SDS011;10421;49.142;9.232;2023-02-18T00:08:52;1.83;;;1.60;;
20525;SDS011;10421;49.142;9.232;2023-02-18T00:11:22;2.27;;;1.93;;
20525;SDS011;10421;49.142;9.232;2023-02-18T00:13:51;1.83;;;1.63;;
20525;SDS011;10421;49.142;9.232;2023-02-18T00:16:20;2.40;;;2.20;;
20525;SDS011;10421;49.142;9.232;2023-02-18T00:18:47;1.70;;;1.60;;
20525;SDS011;10421;49.142;9.232;2023-02-18T00:21:15;2.67;;;1.97;;
20525;SDS011;10421;49.142;9.232;2023-02-18T00:23:42;2.40;;;2.20;;
20525;SDS011;10421;49.142;9.232;2023-02-18T00:26:10;2.63;;;2.10;;
20525;SDS011;10421;49.142;9.232;2023-02-18T00:28:40;2.70;;;2.10;;
20525;SDS011;10421;49.142;9.232;2023-02-18T00:31:12;2.30;;;2.03;;
20525;SDS011;10421;49.142;9.232;2023-02-18T00:33:41;3.10;;;2.20;;
20525;SDS011;10421;49.142;9.232;2023-02-18T00:36:10;2.00;;;1.80;;
20525;SDS011;10421;49.142;9.232;2023-02-18T00:38:39;4.20;;;2.30;;
20525;SDS011;10421;49.142;9.232;2023-02-18T00:41:09;4.00;;;2.23;;
20525;SDS011;10421;49.142;9.232;2023-02-18T00:43:36;2.40;;;2.20;;
20525;SDS011;10421;49.142;9.232;2023-02-18T00:46:05;2.13;;;1.93;;
20525;SDS011;10421;49.142;9.232;2023-02-18T00:48:32;2.83;;;2.17;;
20525;SDS011;10421;49.142;9.232;2023-02-18T00:51:00;2.27;;;2.07;;
20525;SDS011;10421;49.142;9.232;2023-02-18T00:53:28;2.73;;;2.23;;
20525;SDS011;10421;49.142;9.232;2023-02-18T00:55:55;2.20;;;2.03;;
20525;SDS011;10421;49.142;9.232;2023-02-18T00:58:23;2.40;;;2.20;;
20525;SDS011;10421;49.142;9.232;2023-02-18T01:00:50;1.60;;;1.50;;
20525;SDS011;10421;49.142;9.232;2023-02-18T01:03:18;1.70;;;1.60;;
20525;SDS011;10421;49.142;9.232;2023-02-18T01:05:46;3.73;;;2.10;;
20525;SDS011;10421;49.142;9.232;2023-02-18T01:08:16;1.50;;;1.40;;
20525;SDS011;10421;49.142;9.232;2023-02-18T01:10:45;2.70;;;1.90;;
20525;SDS011;10421;49.142;9.232;2023-02-18T01:13:14;2.77;;;1.90;;
20525;SDS011;10421;49.142;9.232;2023-02-18T01:15:43;2.40;;;2.13;;
20525;SDS011;10421;49.142;9.232;2023-02-18T01:18:11;2.30;;;1.97;;
20525;SDS011;10421;49.142;9.232;2023-02-18T01:20:41;3.00;;;2.13;;
20525;SDS011;10421;49.142;9.232;2023-02-18T01:23:09;1.77;;;1.63;;
20525;SDS011;10421;49.142;9.232;2023-02-18T01:25:36;2.00;;;1.80;;
20525;SDS011;10421;49.142;9.232;2023-02-18T01:28:04;2.40;;;1.93;;
20525;SDS011;10421;49.142;9.232;2023-02-18T01:30:32;2.40;;;2.00;;
20525;SDS011;10421;49.142;9.232;2023-02-18T01:32:59;5.10;;;2.07;;
20525;SDS011;10421;49.142;9.232;2023-02-18T01:35:27;2.80;;;2.10;;
20525;SDS011;10421;49.142;9.232;2023-02-18T01:37:55;3.30;;;2.07;;
20525;SDS011;10421;49.142;9.232;2023-02-18T01:40:24;1.90;;;1.80;;
20525;SDS011;10421;49.142;9.232;2023-02-18T01:42:53;5.60;;;2.50;;
20525;SDS011;10421;49.142;9.232;2023-02-18T01:48:25;3.90;;;2.40;;
20525;SDS011;10421;49.142;9.232;2023-02-18T01:50:59;2.23;;;2.03;;
20525;SDS011;10421;49.142;9.232;2023-02-18T01:53:32;2.37;;;2.17;;
20525;SDS011;10421;49.142;9.232;2023-02-18T01:56:03;3.80;;;2.00;;
20525;SDS011;10421;49.142;9.232;2023-02-18T01:58:32;4.00;;;2.07;;
20525;SDS011;10421;49.142;9.232;2023-02-18T02:01:00;2.70;;;2.50;;
20525;SDS011;10421;49.142;9.232;2023-02-18T02:03:28;3.43;;;2.30;;
20525;SDS011;10421;49.142;9.232;2023-02-18T02:05:56;2.87;;;2.23;;
20525;SDS011;10421;49.142;9.232;2023-02-18T02:08:25;4.10;;;2.47;;
20525;SDS011;10421;49.142;9.232;2023-02-18T02:11:01;3.33;;;2.30;;
20525;SDS011;10421;49.142;9.232;2023-02-18T02:13:45;2.10;;;1.90;;
20525;SDS011;10421;49.142;9.232;2023-02-18T02:16:25;2.30;;;2.10;;
20525;SDS011;10421;49.142;9.232;2023-02-18T02:19:03;3.90;;;2.30;;
20525;SDS011;10421;49.142;9.232;2023-02-18T02:22:04;2.17;;;1.97;;
20525;SDS011;10421;49.142;9.232;2023-02-18T02:24:54;3.43;;;2.20;;
20525;SDS011;10421;49.142;9.232;2023-02-18T02:27:37;2.73;;;2.00;;
20525;SDS011;10421;49.142;9.232;2023-02-18T02:30:46;3.30;;;2.30;;
20525;SDS011;10421;49.142;9.232;2023-02-18T02:36:55;2.60;;;2.40;;
20525;SDS011;10421;49.142;9.232;2023-02-18T02:39:34;2.80;;;2.33;;
20525;SDS011;10421;49.142;9.232;2023-02-18T02:42:17;4.33;;;2.40;;
20525;SDS011;10421;49.142;9.232;2023-02-18T02:44:59;3.47;;;2.40;;
20525;SDS011;10421;49.142;9.232;2023-02-18T02:47:34;2.40;;;2.20;;
20525;SDS011;10421;49.142;9.232;2023-02-18T02:50:11;2.53;;;2.20;;
20525;SDS011;10421;49.142;9.232;2023-02-18T02:52:48;3.00;;;2.20;;
20525;SDS011;10421;49.142;9.232;2023-02-18T02:55:17;2.53;;;2.33;;
20525;SDS011;10421;49.142;9.232;2023-02-18T02:57:48;3.13;;;2.70;;
20525;SDS011;10421;49.142;9.232;2023-02-18T03:00:17;5.13;;;2.90;;
20525;SDS011;10421;49.142;9.232;2023-02-18T03:02:57;3.57;;;3.27;;
20525;SDS011;10421;49.142;9.232;2023-02-18T03:05:53;3.40;;;2.67;;
20525;SDS011;10421;49.142;9.232;2023-02-18T03:08:40;3.40;;;2.33;;
20525;SDS011;10421;49.142;9.232;2023-02-18T03:11:17;4.53;;;3.23;;
20525;SDS011;10421;49.142;9.232;2023-02-18T03:13:48;3.77;;;3.13;;
20525;SDS011;10421;49.142;9.232;2023-02-18T03:16:23;5.57;;;3.50;;
20525;SDS011;10421;49.142;9.232;2023-02-18T03:18:56;4.47;;;3.13;;
20525;SDS011;10421;49.142;9.232;2023-02-18T03:21:28;3.40;;;3.00;;
20525;SDS011;10421;49.142;9.232;2023-02-18T03:24:02;4.10;;;3.23;;
20525;SDS011;10421;49.142;9.232;2023-02-18T03:26:35;3.97;;;3.27;;
20525;SDS011;10421;49.142;9.232;2023-02-18T03:29:05;4.90;;;3.80;;
20525;SDS011;10421;49.142;9.232;2023-02-18T03:31:34;4.00;;;3.13;;
20525;SDS011;10421;49.142;9.232;2023-02-18T03:34:04;5.10;;;2.93;;
20525;SDS011;10421;49.142;9.232;2023-02-18T03:36:33;3.73;;;3.20;;
20525;SDS011;10421;49.142;9.232;2023-02-18T03:39:03;4.20;;;3.30;;
20525;SDS011;10421;49.142;9.232;2023-02-18T03:41:32;4.07;;;2.93;;
20525;SDS011;10421;49.142;9.232;2023-02-18T03:44:00;4.50;;;3.40;;
20525;SDS011;10421;49.142;9.232;2023-02-18T03:46:31;3.70;;;3.10;;
20525;SDS011;10421;49.142;9.232;2023-02-18T03:49:00;4.20;;;2.63;;
20525;SDS011;10421;49.142;9.232;2023-02-18T03:51:27;3.90;;;3.20;;
20525;SDS011;10421;49.142;9.232;2023-02-18T03:53:54;3.67;;;3.10;;
20525;SDS011;10421;49.142;9.232;2023-02-18T03:56:22;3.63;;;3.17;;
20525;SDS011;10421;49.142;9.232;2023-02-18T03:58:49;5.43;;;3.23;;
20525;SDS011;10421;49.142;9.232;2023-02-18T04:01:16;5.33;;;3.10;;
20525;SDS011;10421;49.142;9.232;2023-02-18T04:03:42;5.20;;;3.80;;
20525;SDS011;10421;49.142;9.232;2023-02-18T04:06:09;3.70;;;2.97;;
20525;SDS011;10421;49.142;9.232;2023-02-18T04:08:36;5.43;;;3.60;;
20525;SDS011;10421;49.142;9.232;2023-02-18T04:11:03;7.37;;;4.00;;
20525;SDS011;10421;49.142;9.232;2023-02-18T04:13:31;5.40;;;3.93;;
20525;SDS011;10421;49.142;9.232;2023-02-18T04:15:58;5.83;;;4.00;;
20525;SDS011;10421;49.142;9.232;2023-02-18T04:18:25;4.60;;;3.20;;
20525;SDS011;10421;49.142;9.232;2023-02-18T04:20:51;5.70;;;3.47;;
20525;SDS011;10421;49.142;9.232;2023-02-18T04:23:18;4.10;;;3.30;;
20525;SDS011;10421;49.142;9.232;2023-02-18T04:25:45;4.40;;;3.70;;
20525;SDS011;10421;49.142;9.232;2023-02-18T04:28:12;4.20;;;3.20;;
20525;SDS011;10421;49.142;9.232;2023-02-18T04:30:40;4.53;;;3.20;;
20525;SDS011;10421;49.142;9.232;2023-02-18T04:33:07;5.60;;;3.30;;
20525;SDS011;10421;49.142;9.232;2023-02-18T04:35:35;5.43;;;3.93;;
20525;SDS011;10421;49.142;9.232;2023-02-18T04:38:02;5.23;;;3.83;;
20525;SDS011;10421;49.142;9.232;2023-02-18T04:40:29;4.07;;;3.30;;
20525;SDS011;10421;49.142;9.232;2023-02-18T04:42:55;4.67;;;3.77;;
20525;SDS011;10421;49.142;9.232;2023-02-18T04:45:23;4.80;;;3.70;;
20525;SDS011;10421;49.142;9.232;2023-02-18T04:47:51;5.93;;;4.10;;
20525;SDS011;10421;49.142;9.232;2023-02-18T04:50:18;4.70;;;3.13;;
20525;SDS011;10421;49.142;9.232;2023-02-18T04:52:47;4.90;;;3.60;;
20525;SDS011;10421;49.142;9.232;2023-02-18T04:55:14;4.97;;;3.87;;
20525;SDS011;10421;49.142;9.232;2023-02-18T04:57:41;4.17;;;3.70;;
20525;SDS011;10421;49.142;9.232;2023-02-18T05:00:08;4.70;;;3.57;;
20525;SDS011;10421;49.142;9.232;2023-02-18T05:02:39;4.60;;;3.90;;
20525;SDS011;10421;49.142;9.232;2023-02-18T05:05:07;4.40;;;4.00;;
20525;SDS011;10421;49.142;9.232;2023-02-18T05:07:35;5.17;;;3.57;;
20525;SDS011;10421;49.142;9.232;2023-02-18T05:10:02;6.50;;;4.53;;
20525;SDS011;10421;49.142;9.232;2023-02-18T05:12:30;4.63;;;3.83;;
20525;SDS011;10421;49.142;9.232;2023-02-18T05:14:57;5.80;;;3.83;;
20525;SDS011;10421;49.142;9.232;2023-02-18T05:17:23;3.80;;;3.30;;
20525;SDS011;10421;49.142;9.232;2023-02-18T05:19:50;2.90;;;2.60;;
20525;SDS011;10421;49.142;9.232;2023-02-18T05:22:18;4.20;;;2.93;;
20525;SDS011;10421;49.142;9.232;2023-02-18T05:24:45;4.40;;;3.17;;
20525;SDS011;10421;49.142;9.232;2023-02-18T05:27:11;4.43;;;3.47;;
20525;SDS011;10421;49.142;9.232;2023-02-18T05:29:38;5.07;;;3.10;;
20525;SDS011;10421;49.142;9.232;2023-02-18T05:32:05;4.57;;;3.37;;
20525;SDS011;10421;49.142;9.232;2023-02-18T05:34:31;4.13;;;3.10;;
20525;SDS011;10421;49.142;9.232;2023-02-18T05:36:58;3.70;;;2.90;;
20525;SDS011;10421;49.142;9.232;2023-02-18T05:39:26;3.23;;;2.90;;
20525;SDS011;10421;49.142;9.232;2023-02-18T05:41:53;4.70;;;3.00;;
20525;SDS011;10421;49.142;9.232;2023-02-18T05:44:20;3.47;;;2.73;;
20525;SDS011;10421;49.142;9.232;2023-02-18T05:46:56;4.30;;;2.80;;
20525;SDS011;10421;49.142;9.232;2023-02-18T05:49:23;4.00;;;2.87;;
20525;SDS011;10421;49.142;9.232;2023-02-18T05:51:50;3.20;;;2.73;;
20525;SDS011;10421;49.142;9.232;2023-02-18T05:54:17;3.50;;;2.57;;
20525;SDS011;10421;49.142;9.232;2023-02-18T05:56:45;3.30;;;2.83;;
20525;SDS011;10421;49.142;9.232;2023-02-18T05:59:12;3.43;;;2.60;;
20525;SDS011;10421;49.142;9.232;2023-02-18T06:01:39;3.53;;;2.80;;
20525;SDS011;10421;49.142;9.232;2023-02-18T06:04:06;3.30;;;2.37;;
20525;SDS011;10421;49.142;9.232;2023-02-18T06:06:33;5.27;;;3.00;;
20525;SDS011;10421;49.142;9.232;2023-02-18T06:09:00;3.20;;;2.90;;
20525;SDS011;10421;49.142;9.232;2023-02-18T06:11:27;3.30;;;2.40;;
20525;SDS011;10421;49.142;9.232;2023-02-18T06:13:55;4.10;;;2.60;;
20525;SDS011;10421;49.142;9.232;2023-02-18T06:16:22;2.63;;;2.43;;
20525;SDS011;10421;49.142;9.232;2023-02-18T06:18:49;4.80;;;2.73;;
20525;SDS011;10421;49.142;9.232;2023-02-18T06:21:15;2.60;;;2.40;;
20525;SDS011;10421;49.142;9.232;2023-02-18T06:23:42;2.57;;;2.30;;
20525;SDS011;10421;49.142;9.232;2023-02-18T06:26:09;3.33;;;2.23;;
20525;SDS011;10421;49.142;9.232;2023-02-18T06:28:36;2.53;;;2.30;;
20525;SDS011;10421;49.142;9.232;2023-02-18T06:31:04;3.47;;;2.57;;
20525;SDS011;10421;49.142;9.232;2023-02-18T06:33:31;3.80;;;2.60;;
20525;SDS011;10421;49.142;9.232;2023-02-18T06:35:58;3.70;;;2.37;;
20525;SDS011;10421;49.142;9.232;2023-02-18T06:38:27;3.97;;;2.40;;
20525;SDS011;10421;49.142;9.232;2023-02-18T06:40:54;3.67;;;3.10;;
20525;SDS011;10421;49.142;9.232;2023-02-18T06:43:20;3.70;;;3.17;;
20525;SDS011;10421;49.142;9.232;2023-02-18T06:45:47;3.17;;;2.63;;
20525;SDS011;10421;49.142;9.232;2023-02-18T06:48:15;3.43;;;2.87;;
20525;SDS011;10421;49.142;9.232;2023-02-18T06:50:42;2.70;;;2.40;;
20525;SDS011;10421;49.142;9.232;2023-02-18T06:53:09;3.17;;;2.23;;
20525;SDS011;10421;49.142;9.232;2023-02-18T06:55:36;5.73;;;2.70;;
20525;SDS011;10421;49.142;9.232;2023-02-18T06:58:03;3.03;;;2.57;;
20525;SDS011;10421;49.142;9.232;2023-02-18T07:00:30;2.90;;;2.27;;
20525;SDS011;10421;49.142;9.232;2023-02-18T07:02:57;3.07;;;2.70;;
20525;SDS011;10421;49.142;9.232;2023-02-18T07:05:25;5.03;;;2.67;;
20525;SDS011;10421;49.142;9.232;2023-02-18T07:07:52;4.53;;;2.50;;
20525;SDS011;10421;49.142;9.232;2023-02-18T07:10:19;2.60;;;2.30;;
20525;SDS011;10421;49.142;9.232;2023-02-18T07:12:46;2.40;;;2.20;;
20525;SDS011;10421;49.142;9.232;2023-02-18T07:15:13;4.20;;;2.60;;
20525;SDS011;10421;49.142;9.232;2023-02-18T07:17:40;2.17;;;1.97;;
20525;SDS011;10421;49.142;9.232;2023-02-18T07:20:07;2.53;;;2.10;;
20525;SDS011;10421;49.142;9.232;2023-02-18T07:22:36;2.00;;;1.80;;
20525;SDS011;10421;49.142;9.232;2023-02-18T07:25:02;3.17;;;2.40;;
20525;SDS011;10421;49.142;9.232;2023-02-18T07:27:29;2.43;;;2.20;;
20525;SDS011;10421;49.142;9.232;2023-02-18T07:29:56;3.40;;;2.40;;
20525;SDS011;10421;49.142;9.232;2023-02-18T07:32:23;6.87;;;2.20;;
20525;SDS011;10421;49.142;9.232;2023-02-18T07:34:50;2.13;;;1.90;;
20525;SDS011;10421;49.142;9.232;2023-02-18T07:37:17;2.17;;;1.97;;
20525;SDS011;10421;49.142;9.232;2023-02-18T07:39:45;2.60;;;2.07;;
20525;SDS011;10421;49.142;9.232;2023-02-18T07:42:12;2.60;;;2.20;;
20525;SDS011;10421;49.142;9.232;2023-02-18T07:44:39;2.30;;;2.10;;
20525;SDS011;10421;49.142;9.232;2023-02-18T07:47:07;2.40;;;2.10;;
20525;SDS011;10421;49.142;9.232;2023-02-18T07:49:35;2.03;;;1.80;;
20525;SDS011;10421;49.142;9.232;2023-02-18T07:52:02;3.80;;;2.20;;
20525;SDS011;10421;49.142;9.232;2023-02-18T07:54:29;2.30;;;2.10;;
20525;SDS011;10421;49.142;9.232;2023-02-18T07:56:57;2.90;;;1.93;;
20525;SDS011;10421;49.142;9.232;2023-02-18T07:59:24;2.10;;;1.90;;
20525;SDS011;10421;49.142;9.232;2023-02-18T08:01:50;2.10;;;1.77;;
20525;SDS011;10421;49.142;9.232;2023-02-18T08:04:17;2.30;;;1.93;;
20525;SDS011;10421;49.142;9.232;2023-02-18T08:06:45;2.23;;;2.03;;
20525;SDS011;10421;49.142;9.232;2023-02-18T08:09:14;6.40;;;2.50;;
20525;SDS011;10421;49.142;9.232;2023-02-18T08:11:42;6.83;;;2.50;;
20525;SDS011;10421;49.142;9.232;2023-02-18T08:14:10;2.80;;;2.50;;
20525;SDS011;10421;49.142;9.232;2023-02-18T08:16:37;3.67;;;2.60;;
20525;SDS011;10421;49.142;9.232;2023-02-18T08:19:04;2.20;;;1.90;;
20525;SDS011;10421;49.142;9.232;2023-02-18T08:21:32;3.07;;;2.23;;
20525;SDS011;10421;49.142;9.232;2023-02-18T08:23:58;2.43;;;1.90;;
20525;SDS011;10421;49.142;9.232;2023-02-18T08:26:25;2.97;;;2.03;;
20525;SDS011;10421;49.142;9.232;2023-02-18T08:28:52;2.27;;;2.07;;
20525;SDS011;10421;49.142;9.232;2023-02-18T08:31:21;4.20;;;2.57;;
20525;SDS011;10421;49.142;9.232;2023-02-18T08:33:50;3.40;;;2.10;;
20525;SDS011;10421;49.142;9.232;2023-02-18T08:36:17;2.80;;;2.00;;
20525;SDS011;10421;49.142;9.232;2023-02-18T08:38:44;3.03;;;2.50;;
20525;SDS011;10421;49.142;9.232;2023-02-18T08:41:11;2.73;;;2.50;;
20525;SDS011;10421;49.142;9.232;2023-02-18T08:43:38;2.60;;;2.20;;
20525;SDS011;10421;49.142;9.232;2023-02-18T08:46:05;4.47;;;2.70;;
20525;SDS011;10421;49.142;9.232;2023-02-18T08:48:33;2.70;;;2.20;;
20525;SDS011;10421;49.142;9.232;2023-02-18T08:51:09;4.10;;;2.73;;
20525;SDS011;10421;49.142;9.232;2023-02-18T08:53:36;3.67;;;2.63;;
20525;SDS011;10421;49.142;9.232;2023-02-18T08:56:04;2.73;;;1.93;;
20525;SDS011;10421;49.142;9.232;2023-02-18T08:58:32;3.20;;;2.50;;
20525;SDS011;10421;49.142;9.232;2023-02-18T09:01:01;3.00;;;2.53;;
20525;SDS011;10421;49.142;9.232;2023-02-18T09:03:29;4.17;;;2.40;;
20525;SDS011;10421;49.142;9.232;2023-02-18T09:05:57;3.00;;;2.63;;
20525;SDS011;10421;49.142;9.232;2023-02-18T09:08:24;2.80;;;2.10;;
20525;SDS011;10421;49.142;9.232;2023-02-18T09:10:53;3.30;;;2.30;;
20525;SDS011;10421;49.142;9.232;2023-02-18T09:13:21;5.33;;;2.23;;
20525;SDS011;10421;49.142;9.232;2023-02-18T09:15:54;3.90;;;2.57;;
20525;SDS011;10421;49.142;9.232;2023-02-18T09:18:23;2.80;;;2.30;;
20525;SDS011;10421;49.142;9.232;2023-02-18T09:20:49;2.60;;;2.40;;
20525;SDS011;10421;49.142;9.232;2023-02-18T09:23:17;4.37;;;2.40;;
20525;SDS011;10421;49.142;9.232;2023-02-18T09:25:45;2.20;;;1.70;;
20525;SDS011;10421;49.142;9.232;2023-02-18T09:28:12;3.07;;;2.23;;
20525;SDS011;10421;49.142;9.232;2023-02-18T09:30:38;3.00;;;2.50;;
20525;SDS011;10421;49.142;9.232;2023-02-18T09:33:05;4.00;;;2.17;;
20525;SDS011;10421;49.142;9.232;2023-02-18T09:35:32;3.00;;;2.47;;
20525;SDS011;10421;49.142;9.232;2023-02-18T09:37:58;2.23;;;2.03;;
20525;SDS011;10421;49.142;9.232;2023-02-18T09:40:28;4.50;;;2.57;;
20525;SDS011;10421;49.142;9.232;2023-02-18T09:42:58;2.23;;;1.80;;
20525;SDS011;10421;49.142;9.232;2023-02-18T09:45:26;3.40;;;1.93;;
20525;SDS011;10421;49.142;9.232;2023-02-18T09:47:53;2.87;;;2.10;;
20525;SDS011;10421;49.142;9.232;2023-02-18T09:50:21;3.20;;;1.70;;
20525;SDS011;10421;49.142;9.232;2023-02-18T09:52:50;5.23;;;2.00;;
20525;SDS011;10421;49.142;9.232;2023-02-18T09:55:19;2.13;;;1.90;;
20525;SDS011;10421;49.142;9.232;2023-02-18T09:57:50;2.27;;;1.47;;
20525;SDS011;10421;49.142;9.232;2023-02-18T10:00:20;2.00;;;1.47;;
20525;SDS011;10421;49.142;9.232;2023-02-18T10:02:53;2.30;;;2.03;;
20525;SDS011;10421;49.142;9.232;2023-02-18T10:05:22;2.50;;;1.73;;
20525;SDS011;10421;49.142;9.232;2023-02-18T10:07:50;2.13;;;1.97;;
20525;SDS011;10421;49.142;9.232;2023-02-18T10:10:37;2.00;;;1.77;;
20525;SDS011;10421;49.142;9.232;2023-02-18T10:13:11;2.47;;;1.97;;
20525;SDS011;10421;49.142;9.232;2023-02-18T10:15:41;2.30;;;1.80;;
20525;SDS011;10421;49.142;9.232;2023-02-18T10:18:23;2.30;;;1.80;;
20525;SDS011;10421;49.142;9.232;2023-02-18T10:20:57;3.23;;;1.87;;
20525;SDS011;10421;49.142;9.232;2023-02-18T10:23:29;2.53;;;2.10;;
20525;SDS011;10421;49.142;9.232;2023-02-18T10:25:57;1.57;;;1.30;;
20525;SDS011;10421;49.142;9.232;2023-02-18T10:28:27;3.10;;;1.80;;
20525;SDS011;10421;49.142;9.232;2023-02-18T10:30:56;2.70;;;2.00;;
20525;SDS011;10421;49.142;9.232;2023-02-18T10:33:35;2.10;;;1.80;;
20525;SDS011;10421;49.142;9.232;2023-02-18T10:36:14;2.83;;;2.27;;
20525;SDS011;10421;49.142;9.232;2023-02-18T10:38:52;2.37;;;1.93;;
20525;SDS011;10421;49.142;9.232;2023-02-18T10:41:29;3.63;;;1.97;;
20525;SDS011;10421;49.142;9.232;2023-02-18T10:44:07;2.13;;;1.97;;
20525;SDS011;10421;49.142;9.232;2023-02-18T10:46:41;2.90;;;2.10;;
20525;SDS011;10421;49.142;9.232;2023-02-18T10:49:21;2.93;;;2.00;;
20525;SDS011;10421;49.142;9.232;2023-02-18T10:51:59;4.17;;;2.10;;
20525;SDS011;10421;49.142;9.232;2023-02-18T10:54:47;2.67;;;2.20;;
20525;SDS011;10421;49.142;9.232;2023-02-18T10:57:16;2.20;;;2.00;;
20525;SDS011;10421;49.142;9.232;2023-02-18T10:59:52;2.67;;;1.90;;
20525;SDS011;10421;49.142;9.232;2023-02-18T11:02:22;2.83;;;1.83;;
20525;SDS011;10421;49.142;9.232;2023-02-18T11:04:50;3.83;;;2.43;;
20525;SDS011;10421;49.142;9.232;2023-02-18T11:07:18;3.77;;;2.33;;
20525;SDS011;10421;49.142;9.232;2023-02-18T11:09:48;2.67;;;2.30;;
20525;SDS011;10421;49.142;9.232;2023-02-18T11:12:18;2.40;;;1.70;;
20525;SDS011;10421;49.142;9.232;2023-02-18T11:14:49;2.53;;;2.23;;
20525;SDS011;10421;49.142;9.232;2023-02-18T11:17:31;2.27;;;2.00;;
20525;SDS011;10421;49.142;9.232;2023-02-18T11:20:02;2.50;;;1.73;;
20525;SDS011;10421;49.142;9.232;2023-02-18T11:22:57;2.03;;;1.83;;
20525;SDS011;10421;49.142;9.232;2023-02-18T11:25:39;1.73;;;1.43;;
20525;SDS011;10421;49.142;9.232;2023-02-18T11:28:21;2.30;;;1.90;;
20525;SDS011;10421;49.142;9.232;2023-02-18T11:30:58;2.30;;;2.10;;
20525;SDS011;10421;49.142;9.232;2023-02-18T11:33:29;2.13;;;1.90;;
20525;SDS011;10421;49.142;9.232;2023-02-18T11:36:02;3.70;;;2.20;;
20525;SDS011;10421;49.142;9.232;2023-02-18T11:38:41;3.00;;;2.20;;
20525;SDS011;10421;49.142;9.232;2023-02-18T11:41:12;2.83;;;2.37;;
20525;SDS011;10421;49.142;9.232;2023-02-18T11:43:42;1.97;;;1.77;;
20525;SDS011;10421;49.142;9.232;2023-02-18T11:46:15;3.90;;;2.43;;
20525;SDS011;10421;49.142;9.232;2023-02-18T11:48:43;4.10;;;2.83;;
20525;SDS011;10421;49.142;9.232;2023-02-18T11:51:14;3.40;;;2.77;;
20525;SDS011;10421;49.142;9.232;2023-02-18T11:53:53;2.30;;;2.10;;
20525;SDS011;10421;49.142;9.232;2023-02-18T11:56:24;3.10;;;2.40;;
20525;SDS011;10421;49.142;9.232;2023-02-18T11:58:52;2.70;;;2.40;;
20525;SDS011;10421;49.142;9.232;2023-02-18T12:01:23;3.50;;;2.43;;
20525;SDS011;10421;49.142;9.232;2023-02-18T12:03:55;2.60;;;2.37;;
20525;SDS011;10421;49.142;9.232;2023-02-18T12:06:29;3.37;;;2.47;;
20525;SDS011;10421;49.142;9.232;2023-02-18T12:09:00;3.00;;;2.03;;
20525;SDS011;10421;49.142;9.232;2023-02-18T12:11:32;2.20;;;2.00;;
20525;SDS011;10421;49.142;9.232;2023-02-18T12:14:02;2.00;;;1.73;;
20525;SDS011;10421;49.142;9.232;2023-02-18T12:16:33;2.73;;;2.53;;
20525;SDS011;10421;49.142;9.232;2023-02-18T12:19:12;2.90;;;2.43;;
20525;SDS011;10421;49.142;9.232;2023-02-18T12:21:53;2.47;;;2.27;;
20525;SDS011;10421;49.142;9.232;2023-02-18T12:24:40;3.53;;;2.20;;
20525;SDS011;10421;49.142;9.232;2023-02-18T12:27:18;2.80;;;2.60;;
20525;SDS011;10421;49.142;9.232;2023-02-18T12:29:56;3.90;;;2.70;;
20525;SDS011;10421;49.142;9.232;2023-02-18T12:32:48;3.23;;;2.93;;
20525;SDS011;10421;49.142;9.232;2023-02-18T12:35:31;4.27;;;3.10;;
20525;SDS011;10421;49.142;9.232;2023-02-18T12:41:25;3.00;;;2.70;;
20525;SDS011;10421;49.142;9.232;2023-02-18T12:44:06;2.50;;;2.30;;
20525;SDS011;10421;49.142;9.232;2023-02-18T12:46:49;2.70;;;2.47;;
20525;SDS011;10421;49.142;9.232;2023-02-18T12:52:20;2.27;;;2.07;;
20525;SDS011;10421;49.142;9.232;2023-02-18T12:55:04;2.60;;;2.33;;
20525;SDS011;10421;49.142;9.232;2023-02-18T12:57:50;3.53;;;2.60;;
20525;SDS011;10421;49.142;9.232;2023-02-18T13:00:30;3.33;;;2.80;;
20525;SDS011;10421;49.142;9.232;2023-02-18T13:03:18;3.13;;;2.53;;
20525;SDS011;10421;49.142;9.232;2023-02-18T13:06:15;4.60;;;2.60;;
20525;SDS011;10421;49.142;9.232;2023-02-18T13:08:51;4.10;;;2.90;;
20525;SDS011;10421;49.142;9.232;2023-02-18T13:11:27;2.93;;;2.63;;
20525;SDS011;10421;49.142;9.232;2023-02-18T13:14:02;3.27;;;2.60;;
20525;SDS011;10421;49.142;9.232;2023-02-18T13:16:34;4.53;;;2.67;;
20525;SDS011;10421;49.142;9.232;2023-02-18T13:19:06;3.73;;;2.60;;
20525;SDS011;10421;49.142;9.232;2023-02-18T13:21:43;2.80;;;2.60;;
20525;SDS011;10421;49.142;9.232;2023-02-18T13:24:12;2.87;;;2.63;;
20525;SDS011;10421;49.142;9.232;2023-02-18T13:26:42;2.60;;;2.20;;
20525;SDS011;10421;49.142;9.232;2023-02-18T13:29:15;4.60;;;2.80;;
20525;SDS011;10421;49.142;9.232;2023-02-18T13:31:51;4.23;;;2.93;;
20525;SDS011;10421;49.142;9.232;2023-02-18T13:34:28;3.53;;;2.10;;
20525;SDS011;10421;49.142;9.232;2023-02-18T13:37:02;4.50;;;2.80;;
20525;SDS011;10421;49.142;9.232;2023-02-18T13:39:36;2.57;;;1.90;;
20525;SDS011;10421;49.142;9.232;2023-02-18T13:42:24;3.00;;;2.43;;
20525;SDS011;10421;49.142;9.232;2023-02-18T13:45:06;2.70;;;2.27;;
20525;SDS011;10421;49.142;9.232;2023-02-18T13:47:50;5.43;;;2.57;;
20525;SDS011;10421;49.142;9.232;2023-02-18T13:50:25;5.13;;;2.97;;
20525;SDS011;10421;49.142;9.232;2023-02-18T13:55:55;3.13;;;2.80;;
20525;SDS011;10421;49.142;9.232;2023-02-18T13:58:28;5.40;;;2.90;;
20525;SDS011;10421;49.142;9.232;2023-02-18T14:00:59;3.13;;;2.90;;
20525;SDS011;10421;49.142;9.232;2023-02-18T14:03:32;3.80;;;2.90;;
20525;SDS011;10421;49.142;9.232;2023-02-18T14:06:16;3.97;;;2.90;;
20525;SDS011;10421;49.142;9.232;2023-02-18T14:08:46;3.13;;;2.80;;
20525;SDS011;10421;49.142;9.232;2023-02-18T14:11:22;4.17;;;3.20;;
20525;SDS011;10421;49.142;9.232;2023-02-18T14:14:12;3.73;;;2.60;;
20525;SDS011;10421;49.142;9.232;2023-02-18T14:17:13;3.47;;;2.80;;
20525;SDS011;10421;49.142;9.232;2023-02-18T14:19:55;4.07;;;2.07;;
20525;SDS011;10421;49.142;9.232;2023-02-18T14:22:51;2.27;;;2.00;;
20525;SDS011;10421;49.142;9.232;2023-02-18T14:25:24;1.80;;;1.70;;
20525;SDS011;10421;49.142;9.232;2023-02-18T14:28:00;2.60;;;1.90;;
20525;SDS011;10421;49.142;9.232;2023-02-18T14:30:30;2.43;;;2.07;;
20525;SDS011;10421;49.142;9.232;2023-02-18T14:33:03;1.97;;;1.77;;
20525;SDS011;10421;49.142;9.232;2023-02-18T14:35:31;2.00;;;1.73;;
20525;SDS011;10421;49.142;9.232;2023-02-18T14:38:19;1.80;;;1.70;;
20525;SDS011;10421;49.142;9.232;2023-02-18T14:41:03;3.83;;;2.20;;
20525;SDS011;10421;49.142;9.232;2023-02-18T14:43:53;2.57;;;2.03;;
20525;SDS011;10421;49.142;9.232;2023-02-18T14:46:38;2.23;;;1.67;;
20525;SDS011;10421;49.142;9.232;2023-02-18T14:49:23;1.53;;;1.43;;
20525;SDS011;10421;49.142;9.232;2023-02-18T14:52:01;4.03;;;2.27;;
20525;SDS011;10421;49.142;9.232;2023-02-18T14:54:31;1.67;;;1.57;;
20525;SDS011;10421;49.142;9.232;2023-02-18T14:56:59;1.63;;;1.53;;
20525;SDS011;10421;49.142;9.232;2023-02-18T14:59:31;2.20;;;1.90;;
20525;SDS011;10421;49.142;9.232;2023-02-18T15:02:01;1.60;;;1.50;;
20525;SDS011;10421;49.142;9.232;2023-02-18T15:04:27;1.33;;;1.23;;
20525;SDS011;10421;49.142;9.232;2023-02-18T15:06:57;2.20;;;1.50;;
20525;SDS011;10421;49.142;9.232;2023-02-18T15:09:25;2.73;;;1.43;;
20525;SDS011;10421;49.142;9.232;2023-02-18T15:11:54;2.50;;;2.30;;
20525;SDS011;10421;49.142;9.232;2023-02-18T15:14:25;7.00;;;1.90;;
20525;SDS011;10421;49.142;9.232;2023-02-18T15:16:55;1.83;;;1.73;;
20525;SDS011;10421;49.142;9.232;2023-02-18T15:19:23;2.23;;;1.90;;
20525;SDS011;10421;49.142;9.232;2023-02-18T15:21:54;2.13;;;1.43;;
20525;SDS011;10421;49.142;9.232;2023-02-18T15:24:23;2.93;;;2.00;;
20525;SDS011;10421;49.142;9.232;2023-02-18T15:26:52;2.30;;;2.10;;
20525;SDS011;10421;49.142;9.232;2023-02-18T15:29:22;3.10;;;1.90;;